Favola — IBFH — position and weather

sailwx.info

Track history (hours):
 
Tides and Currents Weather Stations Pressure Air Temp Water Temp Dewpoint Dewpoint Depression Visibility Wind Speed Wind Dir Waves Ship Positions

Favola

Last reported at 2015-May-24 11:14 UTC. Time now 2015-May-24 17:15 UTC.
Position N 43°26' W 066°52'.

Length 180 m; draft 7 m.

Type: Ship (hazmat cat D). MMSI: 247069800.

Date/timePositionNaut miles runAvg speedWind from/ knotsBaromVisibWave heightAir tempDewpointWater temp
2015-May-24 11:14N 43°26' W 066°52'913.3
2015-May-24 10:33N 43°17' W 066°54'1212.3
2015-May-24 09:33N 43°05' W 066°53'6812.9
2015-May-24 04:16N 41°56' W 066°57'1013.6
2015-May-24 03:31N 41°46' W 066°58'1512.9
2015-May-24 02:20N 41°31' W 066°59'39811.4
2015-May-22 15:30N 38°46' W 074°51'1010.7
2015-May-22 14:33N 38°48' W 075°04'1211.8
2015-May-22 13:33N 38°60' W 075°08'4314.0
2015-May-22 10:29N 39°38' W 075°35'1213.1
2015-May-22 09:33N 39°48' W 075°26'8 8.1
2015-May-22 08:32N 39°51' W 075°16'0 0.0
2015-May-22 07:32N 39°51' W 075°16'0 0.0
2015-May-22 06:32N 39°51' W 075°16'0 0.0
2015-May-22 05:29N 39°51' W 075°16'0 0.0
2015-May-22 04:32N 39°51' W 075°16'0 0.0
2015-May-22 03:32N 39°51' W 075°16'0 0.0
2015-May-22 02:32N 39°51' W 075°16'0 0.0
2015-May-22 01:32N 39°51' W 075°16'0 0.0
2015-May-22 00:32N 39°51' W 075°16'0 0.0
2015-May-21 23:32N 39°51' W 075°16'0 0.0
2015-May-21 22:32N 39°51' W 075°16'0 0.0
2015-May-21 21:32N 39°51' W 075°16'0 0.0
2015-May-21 20:32N 39°51' W 075°16'0 0.0
2015-May-21 19:32N 39°51' W 075°16'0 0.0
2015-May-21 18:32N 39°51' W 075°16'0 0.0
2015-May-21 17:32N 39°51' W 075°16'0 0.0
2015-May-21 16:31N 39°51' W 075°16'0 0.0
2015-May-21 15:31N 39°51' W 075°16'0 0.1
2015-May-21 14:34N 39°51' W 075°16'4 3.7
2015-May-21 13:34N 39°51' W 075°21'3 2.9
2015-May-21 12:32N 39°49' W 075°24'0 0.0
2015-May-21 11:32N 39°49' W 075°24'0 0.0
2015-May-21 10:32N 39°49' W 075°24'0 0.0
2015-May-21 09:32N 39°49' W 075°24'0 0.2
2015-May-21 08:32N 39°49' W 075°23'0 0.0
2015-May-21 07:32N 39°49' W 075°23'0 0.0
2015-May-21 06:32N 39°49' W 075°23'0 0.0
2015-May-21 05:32N 39°49' W 075°23'0 0.0
2015-May-21 04:32N 39°49' W 075°23'0 0.1
2015-May-21 03:32N 39°49' W 075°23'0 0.1
2015-May-21 02:32N 39°49' W 075°24'0 0.0
2015-May-21 01:32N 39°49' W 075°24'0 0.0
2015-May-21 00:32N 39°49' W 075°24'0 0.0
2015-May-20 23:32N 39°49' W 075°24'0 0.0
2015-May-20 22:32N 39°49' W 075°24'0 0.0
2015-May-20 21:32N 39°49' W 075°24'0 0.1
2015-May-20 20:32N 39°49' W 075°23'0 0.1
2015-May-20 19:32N 39°49' W 075°23'0 0.0
2015-May-20 18:32N 39°49' W 075°23'0 0.0
2015-May-20 17:32N 39°49' W 075°23'0 0.0
2015-May-20 16:32N 39°49' W 075°23'0 0.1
2015-May-20 15:32N 39°49' W 075°23'0 0.2
2015-May-20 14:32N 39°49' W 075°24'0 0.0
2015-May-20 13:32N 39°49' W 075°24'0 0.0
2015-May-20 12:32N 39°49' W 075°24'0 0.0
2015-May-20 11:32N 39°49' W 075°24'0 0.0
2015-May-20 10:32N 39°49' W 075°24'0 0.0
2015-May-20 09:32N 39°49' W 075°24'0 0.1
2015-May-20 08:32N 39°49' W 075°24'0 0.2
2015-May-20 07:32N 39°49' W 075°23'0 0.0
2015-May-20 06:32N 39°49' W 075°23'0 0.0
2015-May-20 05:32N 39°49' W 075°23'0 0.0
2015-May-20 04:32N 39°49' W 075°23'0 0.0
2015-May-20 03:31N 39°49' W 075°23'0 0.0
2015-May-20 02:31N 39°49' W 075°23'0 0.2
2015-May-20 01:31N 39°49' W 075°24'0 0.0
2015-May-20 00:31N 39°49' W 075°24'0 0.0
2015-May-19 23:31N 39°49' W 075°24'0 0.0
2015-May-19 22:31N 39°49' W 075°24'0 0.0
2015-May-19 21:31N 39°49' W 075°24'0 0.1
2015-May-19 20:31N 39°49' W 075°24'0 0.2
2015-May-19 19:31N 39°49' W 075°23'0 0.0
2015-May-19 18:31N 39°49' W 075°23'0 0.0
2015-May-19 17:31N 39°49' W 075°23'0 0.0
2015-May-19 16:31N 39°49' W 075°23'0 0.0
2015-May-19 15:31N 39°49' W 075°23'0 0.2
2015-May-19 14:31N 39°49' W 075°24'0 0.0
2015-May-19 13:31N 39°49' W 075°24'0 0.0
2015-May-19 12:31N 39°49' W 075°24'0 0.0
2015-May-19 11:31N 39°49' W 075°24'0 0.0
2015-May-19 10:31N 39°49' W 075°24'0 0.0
2015-May-19 09:31N 39°49' W 075°24'0 0.0
2015-May-19 08:31N 39°49' W 075°24'0 0.1
2015-May-19 07:31N 39°49' W 075°24'0 0.2
2015-May-19 06:31N 39°49' W 075°23'0 0.0
2015-May-19 05:31N 39°49' W 075°23'0 0.0
2015-May-19 04:31N 39°49' W 075°23'0 0.0
2015-May-19 03:31N 39°49' W 075°23'0 0.0
2015-May-19 02:31N 39°49' W 075°23'0 0.2
2015-May-19 01:31N 39°49' W 075°24'0 0.1
2015-May-19 00:31N 39°49' W 075°24'3 3.2
2015-May-18 23:33N 39°51' W 075°21'5 5.4
2015-May-18 22:34N 39°51' W 075°14'0 0.0
2015-May-18 21:33N 39°51' W 075°14'0 0.0
2015-May-18 20:33N 39°51' W 075°14'0 0.0
2015-May-18 19:33N 39°51' W 075°14'0 0.0
2015-May-18 18:33N 39°51' W 075°14'0 0.0
2015-May-18 17:33N 39°51' W 075°14'0 0.0
2015-May-18 16:30N 39°51' W 075°14'0 0.0
2015-May-18 15:33N 39°51' W 075°14'0 0.0
2015-May-18 14:33N 39°51' W 075°14'0 0.0
2015-May-18 13:33N 39°51' W 075°14'0 0.0
2015-May-18 12:33N 39°51' W 075°14'0 0.0
2015-May-18 11:33N 39°51' W 075°14'0 0.0
2015-May-18 10:33N 39°51' W 075°14'0 0.0
2015-May-18 09:33N 39°51' W 075°14'0 0.0
2015-May-18 08:33N 39°51' W 075°14'0 0.0
2015-May-18 07:33N 39°51' W 075°14'0 0.0
2015-May-18 06:33N 39°51' W 075°14'0 0.0
2015-May-18 05:33N 39°51' W 075°14'0 0.0
2015-May-18 04:33N 39°51' W 075°14'0 0.0
2015-May-18 03:33N 39°51' W 075°14'0 0.0
2015-May-18 02:33N 39°51' W 075°14'0 0.0
2015-May-18 01:33N 39°51' W 075°14'0 0.0
2015-May-18 00:33N 39°51' W 075°14'0 0.0
2015-May-17 23:33N 39°51' W 075°14'0 0.0
2015-May-17 22:33N 39°51' W 075°14'0 0.0
2015-May-17 21:33N 39°51' W 075°14'0 0.0
2015-May-17 20:33N 39°51' W 075°14'0 0.0
2015-May-17 19:33N 39°51' W 075°14'0 0.0
2015-May-17 18:33N 39°51' W 075°14'0 0.0
2015-May-17 17:33N 39°51' W 075°14'0 0.0
2015-May-17 16:33N 39°51' W 075°14'0 0.0
2015-May-17 15:33N 39°51' W 075°14'0 0.0
2015-May-17 14:33N 39°51' W 075°14'2 1.8
2015-May-17 13:33N 39°51' W 075°16'8 8.3
2015-May-17 12:34N 39°48' W 075°26'1110.7
2015-May-17 11:33N 39°39' W 075°33'10 9.7
2015-May-17 10:33N 39°29' W 075°34'10 9.9
2015-May-17 09:34N 39°21' W 075°26'1010.2
2015-May-17 08:33N 39°13' W 075°18'1010.0
2015-May-17 07:34N 39°05' W 075°11'1010.1
2015-May-17 06:34N 38°55' W 075°06'9 9.0
2015-May-17 05:34N 38°47' W 075°02'10 9.8
2015-May-17 04:33N 38°40' W 074°53'1110.7
2015-May-17 03:33N 38°32' W 074°44'1110.9
2015-May-17 02:33N 38°26' W 074°32'1311.1
2015-May-17 01:23N 38°24' W 074°16'2211.6
2015-May-16 23:27N 38°14' W 073°50'2910.1
2015-May-16 20:32N 38°04' W 073°15'1311.5
2015-May-16 19:26N 37°60' W 073°00'1312.3
2015-May-16 18:22N 37°56' W 072°44'1512.0
2015-May-16 17:09N 37°51' W 072°27'  
Track history (hours):
 
Tides and Currents Weather Stations Pressure Air Temp Water Temp Dewpoint Dewpoint Depression Visibility Wind Speed Wind Dir Waves Ship Positions

Favola

Last reported at 2015-May-24 11:14 UTC. Time now 2015-May-24 17:15 UTC.
Position N 43°26' W 066°52'.

Length 180 m; draft 7 m.

Type: Ship (hazmat cat D). MMSI: 247069800.

Date/timePositionNaut miles runAvg speedWind from/ knotsBaromVisibWave heightAir tempDewpointWater temp
2015-May-24 11:14N 43°26' W 066°52'913.3
2015-May-24 10:33N 43°17' W 066°54'1212.3
2015-May-24 09:33N 43°05' W 066°53'6812.9
2015-May-24 04:16N 41°56' W 066°57'1013.6
2015-May-24 03:31N 41°46' W 066°58'1512.9
2015-May-24 02:20N 41°31' W 066°59'39811.4
2015-May-22 15:30N 38°46' W 074°51'1010.7
2015-May-22 14:33N 38°48' W 075°04'1211.8
2015-May-22 13:33N 38°60' W 075°08'4314.0
2015-May-22 10:29N 39°38' W 075°35'1213.1
2015-May-22 09:33N 39°48' W 075°26'8 8.1
2015-May-22 08:32N 39°51' W 075°16'0 0.0
2015-May-22 07:32N 39°51' W 075°16'0 0.0
2015-May-22 06:32N 39°51' W 075°16'0 0.0
2015-May-22 05:29N 39°51' W 075°16'0 0.0
2015-May-22 04:32N 39°51' W 075°16'0 0.0
2015-May-22 03:32N 39°51' W 075°16'0 0.0
2015-May-22 02:32N 39°51' W 075°16'0 0.0
2015-May-22 01:32N 39°51' W 075°16'0 0.0
2015-May-22 00:32N 39°51' W 075°16'0 0.0
2015-May-21 23:32N 39°51' W 075°16'0 0.0
2015-May-21 22:32N 39°51' W 075°16'0 0.0
2015-May-21 21:32N 39°51' W 075°16'0 0.0
2015-May-21 20:32N 39°51' W 075°16'0 0.0
2015-May-21 19:32N 39°51' W 075°16'0 0.0
2015-May-21 18:32N 39°51' W 075°16'0 0.0
2015-May-21 17:32N 39°51' W 075°16'0 0.0
2015-May-21 16:31N 39°51' W 075°16'0 0.0
2015-May-21 15:31N 39°51' W 075°16'0 0.1
2015-May-21 14:34N 39°51' W 075°16'4 3.7
2015-May-21 13:34N 39°51' W 075°21'3 2.9
2015-May-21 12:32N 39°49' W 075°24'0 0.0
2015-May-21 11:32N 39°49' W 075°24'0 0.0
2015-May-21 10:32N 39°49' W 075°24'0 0.0
2015-May-21 09:32N 39°49' W 075°24'0 0.2
2015-May-21 08:32N 39°49' W 075°23'0 0.0
2015-May-21 07:32N 39°49' W 075°23'0 0.0
2015-May-21 06:32N 39°49' W 075°23'0 0.0
2015-May-21 05:32N 39°49' W 075°23'0 0.0
2015-May-21 04:32N 39°49' W 075°23'0 0.1
2015-May-21 03:32N 39°49' W 075°23'0 0.1
2015-May-21 02:32N 39°49' W 075°24'0 0.0
2015-May-21 01:32N 39°49' W 075°24'0 0.0
2015-May-21 00:32N 39°49' W 075°24'0 0.0
2015-May-20 23:32N 39°49' W 075°24'0 0.0
2015-May-20 22:32N 39°49' W 075°24'0 0.0
2015-May-20 21:32N 39°49' W 075°24'0 0.1
2015-May-20 20:32N 39°49' W 075°23'0 0.1
2015-May-20 19:32N 39°49' W 075°23'0 0.0
2015-May-20 18:32N 39°49' W 075°23'0 0.0
2015-May-20 17:32N 39°49' W 075°23'0 0.0
2015-May-20 16:32N 39°49' W 075°23'0 0.1
2015-May-20 15:32N 39°49' W 075°23'0 0.2
2015-May-20 14:32N 39°49' W 075°24'0 0.0
2015-May-20 13:32N 39°49' W 075°24'0 0.0
2015-May-20 12:32N 39°49' W 075°24'0 0.0
2015-May-20 11:32N 39°49' W 075°24'0 0.0
2015-May-20 10:32N 39°49' W 075°24'0 0.0
2015-May-20 09:32N 39°49' W 075°24'0 0.1
2015-May-20 08:32N 39°49' W 075°24'0 0.2
2015-May-20 07:32N 39°49' W 075°23'0 0.0
2015-May-20 06:32N 39°49' W 075°23'0 0.0
2015-May-20 05:32N 39°49' W 075°23'0 0.0
2015-May-20 04:32N 39°49' W 075°23'0 0.0
2015-May-20 03:31N 39°49' W 075°23'0 0.0
2015-May-20 02:31N 39°49' W 075°23'0 0.2
2015-May-20 01:31N 39°49' W 075°24'0 0.0
2015-May-20 00:31N 39°49' W 075°24'0 0.0
2015-May-19 23:31N 39°49' W 075°24'0 0.0
2015-May-19 22:31N 39°49' W 075°24'0 0.0
2015-May-19 21:31N 39°49' W 075°24'0 0.1
2015-May-19 20:31N 39°49' W 075°24'0 0.2
2015-May-19 19:31N 39°49' W 075°23'0 0.0
2015-May-19 18:31N 39°49' W 075°23'0 0.0
2015-May-19 17:31N 39°49' W 075°23'0 0.0
2015-May-19 16:31N 39°49' W 075°23'0 0.0
2015-May-19 15:31N 39°49' W 075°23'0 0.2
2015-May-19 14:31N 39°49' W 075°24'0 0.0
2015-May-19 13:31N 39°49' W 075°24'0 0.0
2015-May-19 12:31N 39°49' W 075°24'0 0.0
2015-May-19 11:31N 39°49' W 075°24'0 0.0
2015-May-19 10:31N 39°49' W 075°24'0 0.0
2015-May-19 09:31N 39°49' W 075°24'0 0.0
2015-May-19 08:31N 39°49' W 075°24'0 0.1
2015-May-19 07:31N 39°49' W 075°24'0 0.2
2015-May-19 06:31N 39°49' W 075°23'0 0.0
2015-May-19 05:31N 39°49' W 075°23'0 0.0
2015-May-19 04:31N 39°49' W 075°23'0 0.0
2015-May-19 03:31N 39°49' W 075°23'0 0.0
2015-May-19 02:31N 39°49' W 075°23'0 0.2
2015-May-19 01:31N 39°49' W 075°24'0 0.1
2015-May-19 00:31N 39°49' W 075°24'3 3.2
2015-May-18 23:33N 39°51' W 075°21'5 5.4
2015-May-18 22:34N 39°51' W 075°14'0 0.0
2015-May-18 21:33N 39°51' W 075°14'0 0.0
2015-May-18 20:33N 39°51' W 075°14'0 0.0
2015-May-18 19:33N 39°51' W 075°14'0 0.0
2015-May-18 18:33N 39°51' W 075°14'0 0.0
2015-May-18 17:33N 39°51' W 075°14'0 0.0
2015-May-18 16:30N 39°51' W 075°14'0 0.0
2015-May-18 15:33N 39°51' W 075°14'0 0.0
2015-May-18 14:33N 39°51' W 075°14'0 0.0
2015-May-18 13:33N 39°51' W 075°14'0 0.0
2015-May-18 12:33N 39°51' W 075°14'0 0.0
2015-May-18 11:33N 39°51' W 075°14'0 0.0
2015-May-18 10:33N 39°51' W 075°14'0 0.0
2015-May-18 09:33N 39°51' W 075°14'0 0.0
2015-May-18 08:33N 39°51' W 075°14'0 0.0
2015-May-18 07:33N 39°51' W 075°14'0 0.0
2015-May-18 06:33N 39°51' W 075°14'0 0.0
2015-May-18 05:33N 39°51' W 075°14'0 0.0
2015-May-18 04:33N 39°51' W 075°14'0 0.0
2015-May-18 03:33N 39°51' W 075°14'0 0.0
2015-May-18 02:33N 39°51' W 075°14'0 0.0
2015-May-18 01:33N 39°51' W 075°14'0 0.0
2015-May-18 00:33N 39°51' W 075°14'0 0.0
2015-May-17 23:33N 39°51' W 075°14'0 0.0
2015-May-17 22:33N 39°51' W 075°14'0 0.0
2015-May-17 21:33N 39°51' W 075°14'0 0.0
2015-May-17 20:33N 39°51' W 075°14'0 0.0
2015-May-17 19:33N 39°51' W 075°14'0 0.0
2015-May-17 18:33N 39°51' W 075°14'0 0.0
2015-May-17 17:33N 39°51' W 075°14'0 0.0
2015-May-17 16:33N 39°51' W 075°14'0 0.0
2015-May-17 15:33N 39°51' W 075°14'0 0.0
2015-May-17 14:33N 39°51' W 075°14'2 1.8
2015-May-17 13:33N 39°51' W 075°16'8 8.3
2015-May-17 12:34N 39°48' W 075°26'1110.7
2015-May-17 11:33N 39°39' W 075°33'10 9.7
2015-May-17 10:33N 39°29' W 075°34'10 9.9
2015-May-17 09:34N 39°21' W 075°26'1010.2
2015-May-17 08:33N 39°13' W 075°18'1010.0
2015-May-17 07:34N 39°05' W 075°11'1010.1
2015-May-17 06:34N 38°55' W 075°06'9 9.0
2015-May-17 05:34N 38°47' W 075°02'10 9.8
2015-May-17 04:33N 38°40' W 074°53'1110.7
2015-May-17 03:33N 38°32' W 074°44'1110.9
2015-May-17 02:33N 38°26' W 074°32'1311.1
2015-May-17 01:23N 38°24' W 074°16'2211.6
2015-May-16 23:27N 38°14' W 073°50'2910.1
2015-May-16 20:32N 38°04' W 073°15'1311.5
2015-May-16 19:26N 37°60' W 073°00'1312.3
2015-May-16 18:22N 37°56' W 072°44'1512.0
2015-May-16 17:09N 37°51' W 072°27'  

Dump ship's entire track history